sensor_id;sensor_type;location;lat;lon;timestamp;pressure;altitude;pressure_sealevel;temperature;humidity
4528;BME280;62320;51.520;6.818;2023-03-01T00:09:46;102607.13;;;-0.31;78.30
4528;BME280;62320;51.520;6.818;2023-03-01T00:19:47;102608.59;;;-0.34;77.75
4528;BME280;62320;51.520;6.818;2023-03-01T00:29:49;102593.75;;;-0.40;78.54
4528;BME280;62320;51.520;6.818;2023-03-01T00:39:50;102586.78;;;-0.42;77.18
4528;BME280;62320;51.520;6.818;2023-03-01T00:49:52;102577.94;;;-0.59;78.33
4528;BME280;62320;51.520;6.818;2023-03-01T00:59:53;102566.31;;;-0.79;78.10
4528;BME280;62320;51.520;6.818;2023-03-01T01:09:55;102557.91;;;-0.89;78.08
4528;BME280;62320;51.520;6.818;2023-03-01T01:19:56;102558.09;;;-1.09;80.08
4528;BME280;62320;51.520;6.818;2023-03-01T01:29:58;102542.00;;;-1.31;81.50
4528;BME280;62320;51.520;6.818;2023-03-01T01:40:01;102520.28;;;-1.28;81.12
4528;BME280;62320;51.520;6.818;2023-03-01T01:50:08;102511.34;;;-1.34;80.57
4528;BME280;62320;51.520;6.818;2023-03-01T02:00:19;102527.97;;;-1.38;78.73
4528;BME280;62320;51.520;6.818;2023-03-01T02:10:22;102520.50;;;-1.36;79.59
4528;BME280;62320;51.520;6.818;2023-03-01T02:20:33;102497.59;;;-1.15;80.26
4528;BME280;62320;51.520;6.818;2023-03-01T02:30:35;102490.97;;;-1.13;78.43
4528;BME280;62320;51.520;6.818;2023-03-01T02:40:38;102491.16;;;-1.33;79.01
4528;BME280;62320;51.520;6.818;2023-03-01T03:01:01;102504.56;;;-1.46;80.98
4528;BME280;62320;51.520;6.818;2023-03-01T03:11:02;102507.13;;;-1.46;80.57
4528;BME280;62320;51.520;6.818;2023-03-01T03:21:08;102496.19;;;-1.45;79.35
4528;BME280;62320;51.520;6.818;2023-03-01T03:31:11;102492.66;;;-1.47;79.44
4528;BME280;62320;51.520;6.818;2023-03-01T03:41:13;102494.91;;;-1.61;79.26
4528;BME280;62320;51.520;6.818;2023-03-01T03:51:16;102487.25;;;-1.73;81.52
4528;BME280;62320;51.520;6.818;2023-03-01T04:01:18;102473.19;;;-1.91;83.06
4528;BME280;62320;51.520;6.818;2023-03-01T04:11:19;102450.53;;;-1.99;84.34
4528;BME280;62320;51.520;6.818;2023-03-01T04:21:27;102447.69;;;-1.92;83.67
4528;BME280;62320;51.520;6.818;2023-03-01T04:31:28;102459.19;;;-1.86;81.49
4528;BME280;62320;51.520;6.818;2023-03-01T04:41:30;102454.06;;;-1.97;81.60
4528;BME280;62320;51.520;6.818;2023-03-01T04:51:31;102454.75;;;-1.88;81.02
4528;BME280;62320;51.520;6.818;2023-03-01T05:01:33;102443.47;;;-1.70;80.62
4528;BME280;62320;51.520;6.818;2023-03-01T05:11:37;102433.44;;;-1.80;81.92
4528;BME280;62320;51.520;6.818;2023-03-01T05:21:39;102431.50;;;-1.94;80.81
4528;BME280;62320;51.520;6.818;2023-03-01T05:32:01;102432.69;;;-2.01;82.56
4528;BME280;62320;51.520;6.818;2023-03-01T05:42:03;102414.44;;;-1.85;80.51
4528;BME280;62320;51.520;6.818;2023-03-01T05:52:05;102408.06;;;-1.80;81.01
4528;BME280;62320;51.520;6.818;2023-03-01T06:02:06;102423.28;;;-1.80;81.10
4528;BME280;62320;51.520;6.818;2023-03-01T06:12:08;102421.19;;;-1.74;80.84
4528;BME280;62320;51.520;6.818;2023-03-01T06:22:09;102410.47;;;-1.93;81.52
4528;BME280;62320;51.520;6.818;2023-03-01T06:32:11;102393.84;;;-1.78;82.11
4528;BME280;62320;51.520;6.818;2023-03-01T06:42:12;102400.81;;;-1.76;81.91
4528;BME280;62320;51.520;6.818;2023-03-01T06:52:14;102401.06;;;-1.73;81.28
4528;BME280;62320;51.520;6.818;2023-03-01T07:02:15;102405.63;;;-1.57;82.31
4528;BME280;62320;51.520;6.818;2023-03-01T07:12:17;102412.47;;;-1.45;81.39
4528;BME280;62320;51.520;6.818;2023-03-01T07:22:18;102407.88;;;-1.15;80.29
4528;BME280;62320;51.520;6.818;2023-03-01T07:32:20;102407.44;;;-1.10;81.63
4528;BME280;62320;51.520;6.818;2023-03-01T07:42:21;102395.75;;;-0.96;80.66
4528;BME280;62320;51.520;6.818;2023-03-01T07:52:23;102399.28;;;-0.83;80.08
4528;BME280;62320;51.520;6.818;2023-03-01T08:02:24;102396.41;;;-0.76;81.04
4528;BME280;62320;51.520;6.818;2023-03-01T08:12:26;102399.69;;;-0.65;80.59
4528;BME280;62320;51.520;6.818;2023-03-01T08:22:29;102393.94;;;-0.51;80.67
4528;BME280;62320;51.520;6.818;2023-03-01T08:32:36;102390.34;;;-0.30;79.83
4528;BME280;62320;51.520;6.818;2023-03-01T08:42:38;102381.13;;;-0.16;79.34
4528;BME280;62320;51.520;6.818;2023-03-01T08:52:40;102383.16;;;0.01;79.13
4528;BME280;62320;51.520;6.818;2023-03-01T09:02:41;102376.34;;;0.13;78.67
4528;BME280;62320;51.520;6.818;2023-03-01T09:12:43;102361.66;;;0.34;77.88
4528;BME280;62320;51.520;6.818;2023-03-01T09:22:45;102360.41;;;0.53;77.43
4528;BME280;62320;51.520;6.818;2023-03-01T09:32:46;102350.66;;;0.73;77.65
4528;BME280;62320;51.520;6.818;2023-03-01T09:43:05;102347.50;;;0.90;76.81
4528;BME280;62320;51.520;6.818;2023-03-01T09:53:33;102344.66;;;1.11;76.11
4528;BME280;62320;51.520;6.818;2023-03-01T10:03:43;102330.88;;;1.35;75.11
4528;BME280;62320;51.520;6.818;2023-03-01T10:24:10;102304.44;;;1.61;73.13
4528;BME280;62320;51.520;6.818;2023-03-01T10:34:19;102292.97;;;1.82;72.43
4528;BME280;62320;51.520;6.818;2023-03-01T10:44:45;102296.06;;;1.91;73.06
4528;BME280;62320;51.520;6.818;2023-03-01T10:55:23;102276.28;;;2.16;71.13
4528;BME280;62320;51.520;6.818;2023-03-01T11:05:26;102258.44;;;2.31;71.40
4528;BME280;62320;51.520;6.818;2023-03-01T11:15:29;102245.03;;;2.50;70.40
4528;BME280;62320;51.520;6.818;2023-03-01T11:25:35;102241.81;;;2.68;69.51
4528;BME280;62320;51.520;6.818;2023-03-01T11:35:45;102230.28;;;2.91;67.99
4528;BME280;62320;51.520;6.818;2023-03-01T11:56:35;102237.34;;;3.27;67.49
4528;BME280;62320;51.520;6.818;2023-03-01T12:37:42;102202.38;;;3.92;66.08
4528;BME280;62320;51.520;6.818;2023-03-01T12:47:54;102161.38;;;4.08;64.73
4528;BME280;62320;51.520;6.818;2023-03-01T13:18:35;102136.63;;;4.44;64.92
4528;BME280;62320;51.520;6.818;2023-03-01T13:48:56;102093.38;;;4.88;61.48
4528;BME280;62320;51.520;6.818;2023-03-01T13:59:01;102072.28;;;4.94;63.44
4528;BME280;62320;51.520;6.818;2023-03-01T14:09:20;102068.41;;;5.43;57.66
4528;BME280;62320;51.520;6.818;2023-03-01T14:19:28;102061.34;;;5.17;63.12
4528;BME280;62320;51.520;6.818;2023-03-01T14:29:36;102059.75;;;5.21;60.90
4528;BME280;62320;51.520;6.818;2023-03-01T14:39:38;102042.66;;;5.20;61.52
4528;BME280;62320;51.520;6.818;2023-03-01T14:49:40;102028.25;;;5.23;59.57
4528;BME280;62320;51.520;6.818;2023-03-01T14:59:43;102025.31;;;5.35;59.82
4528;BME280;62320;51.520;6.818;2023-03-01T15:09:45;102010.63;;;5.31;60.91
4528;BME280;62320;51.520;6.818;2023-03-01T15:19:47;102004.84;;;5.36;60.49
4528;BME280;62320;51.520;6.818;2023-03-01T15:29:59;102001.50;;;5.37;59.50
4528;BME280;62320;51.520;6.818;2023-03-01T15:40:48;101995.59;;;5.40;58.16
4528;BME280;62320;51.520;6.818;2023-03-01T15:50:39;101987.72;;;5.35;59.11
4528;BME280;62320;51.520;6.818;2023-03-01T16:00:42;101991.09;;;5.34;59.78
4528;BME280;62320;51.520;6.818;2023-03-01T16:11:00;101980.00;;;5.34;61.33
4528;BME280;62320;51.520;6.818;2023-03-01T16:21:04;101993.75;;;5.36;60.15
4528;BME280;62320;51.520;6.818;2023-03-01T16:31:06;101975.78;;;5.36;59.56
4528;BME280;62320;51.520;6.818;2023-03-01T16:41:13;101970.16;;;5.24;60.20
4528;BME280;62320;51.520;6.818;2023-03-01T16:51:15;101977.66;;;5.19;60.16
4528;BME280;62320;51.520;6.818;2023-03-01T17:01:19;101977.28;;;5.10;61.45
4528;BME280;62320;51.520;6.818;2023-03-01T17:11:21;101988.88;;;5.02;61.21
4528;BME280;62320;51.520;6.818;2023-03-01T17:21:22;101990.06;;;4.89;59.92
4528;BME280;62320;51.520;6.818;2023-03-01T17:31:24;101991.31;;;4.78;61.07
4528;BME280;62320;51.520;6.818;2023-03-01T17:41:25;102004.53;;;4.68;62.51
4528;BME280;62320;51.520;6.818;2023-03-01T17:51:27;101991.22;;;4.56;61.75
4528;BME280;62320;51.520;6.818;2023-03-01T18:01:29;101996.78;;;4.48;60.94
4528;BME280;62320;51.520;6.818;2023-03-01T18:11:33;102000.69;;;4.40;62.28
4528;BME280;62320;51.520;6.818;2023-03-01T18:21:35;102008.84;;;4.31;62.31
4528;BME280;62320;51.520;6.818;2023-03-01T18:31:37;102001.34;;;4.16;61.98
4528;BME280;62320;51.520;6.818;2023-03-01T18:41:38;101998.09;;;4.20;63.01
4528;BME280;62320;51.520;6.818;2023-03-01T18:51:40;101989.16;;;4.11;62.41
4528;BME280;62320;51.520;6.818;2023-03-01T19:01:42;101981.19;;;4.05;63.89
4528;BME280;62320;51.520;6.818;2023-03-01T19:11:44;101964.41;;;3.92;64.36
4528;BME280;62320;51.520;6.818;2023-03-01T19:21:45;101962.44;;;3.87;63.67
4528;BME280;62320;51.520;6.818;2023-03-01T19:32:03;101963.06;;;3.81;63.73
4528;BME280;62320;51.520;6.818;2023-03-01T19:42:05;101965.09;;;3.71;64.08
4528;BME280;62320;51.520;6.818;2023-03-01T19:52:07;101970.09;;;3.68;64.26
4528;BME280;62320;51.520;6.818;2023-03-01T20:02:09;101967.16;;;3.60;64.38
4528;BME280;62320;51.520;6.818;2023-03-01T20:12:12;101961.59;;;3.51;64.50
4528;BME280;62320;51.520;6.818;2023-03-01T20:22:13;101953.16;;;3.52;64.59
4528;BME280;62320;51.520;6.818;2023-03-01T20:32:18;101962.78;;;3.40;64.94
4528;BME280;62320;51.520;6.818;2023-03-01T20:42:20;101947.06;;;3.32;64.96
4528;BME280;62320;51.520;6.818;2023-03-01T20:52:21;101951.44;;;3.35;65.17
4528;BME280;62320;51.520;6.818;2023-03-01T21:02:23;101950.06;;;3.24;65.99
4528;BME280;62320;51.520;6.818;2023-03-01T21:12:24;101941.47;;;3.22;65.77
4528;BME280;62320;51.520;6.818;2023-03-01T21:22:26;101933.72;;;3.20;66.14
4528;BME280;62320;51.520;6.818;2023-03-01T21:32:29;101934.44;;;3.18;65.95
4528;BME280;62320;51.520;6.818;2023-03-01T21:42:32;101918.81;;;3.12;66.42
4528;BME280;62320;51.520;6.818;2023-03-01T21:52:35;101917.47;;;3.02;66.13
4528;BME280;62320;51.520;6.818;2023-03-01T22:02:36;101917.47;;;3.02;65.96
4528;BME280;62320;51.520;6.818;2023-03-01T22:12:38;101929.97;;;2.96;65.49
4528;BME280;62320;51.520;6.818;2023-03-01T22:22:40;101930.84;;;2.97;66.32
4528;BME280;62320;51.520;6.818;2023-03-01T22:32:43;101927.13;;;2.90;66.23
4528;BME280;62320;51.520;6.818;2023-03-01T22:42:44;101925.28;;;2.87;66.92
4528;BME280;62320;51.520;6.818;2023-03-01T22:52:46;101906.13;;;2.79;66.98
4528;BME280;62320;51.520;6.818;2023-03-01T23:02:47;101901.22;;;2.66;67.00
4528;BME280;62320;51.520;6.818;2023-03-01T23:12:49;101905.06;;;2.74;66.77
4528;BME280;62320;51.520;6.818;2023-03-01T23:22:50;101911.22;;;2.62;67.30
4528;BME280;62320;51.520;6.818;2023-03-01T23:32:52;101916.91;;;2.56;67.36
4528;BME280;62320;51.520;6.818;2023-03-01T23:42:53;101921.28;;;2.59;67.85
4528;BME280;62320;51.520;6.818;2023-03-01T23:52:55;101924.16;;;2.49;67.47
